createdAt,value
2019-03-20T00:00:16.562Z,14.58
2019-03-20T00:02:46.113Z,10.35
2019-03-20T00:05:15.563Z,12.40
2019-03-20T00:07:46.776Z,12.23
2019-03-20T00:10:16.824Z,11.28
2019-03-20T00:12:46.248Z,12.90
2019-03-20T00:15:15.693Z,10.50
2019-03-20T00:17:45.104Z,12.05
2019-03-20T00:20:14.705Z,11.53
2019-03-20T00:22:44.175Z,16.12
2019-03-20T00:25:13.648Z,11.88
2019-03-20T00:27:43.042Z,12.10
2019-03-20T00:30:13.076Z,14.93
2019-03-20T00:32:42.532Z,12.43
2019-03-20T00:35:12.052Z,17.10
2019-03-20T00:37:41.547Z,13.28
2019-03-20T00:40:11.816Z,13.08
2019-03-20T00:42:41.363Z,16.15
2019-03-20T00:45:11.876Z,13.50
2019-03-20T00:47:41.289Z,11.53
2019-03-20T00:50:13.220Z,13.90
2019-03-20T00:52:42.698Z,15.80
2019-03-20T00:55:12.331Z,13.85
2019-03-20T00:57:41.920Z,12.88
2019-03-20T01:00:14.143Z,11.48
2019-03-20T01:02:43.573Z,16.80
2019-03-20T01:05:13.198Z,11.75
2019-03-20T01:07:44.453Z,10.15
2019-03-20T01:10:16.952Z,11.63
2019-03-20T01:12:46.556Z,13.38
2019-03-20T01:15:17.732Z,14.35
2019-03-20T01:17:47.310Z,13.10
2019-03-20T01:20:17.733Z,15.68
2019-03-20T01:22:47.817Z,16.07
2019-03-20T01:25:18.409Z,14.25
2019-03-20T01:27:47.788Z,15.88
2019-03-20T01:30:37.101Z,13.68
2019-03-20T01:33:08.075Z,16.00
2019-03-20T01:35:37.622Z,14.03
2019-03-20T01:38:07.261Z,10.72
2019-03-20T01:40:36.721Z,15.03
2019-03-20T01:43:06.380Z,13.62
2019-03-20T01:45:35.785Z,12.15
2019-03-20T01:48:05.481Z,13.48
2019-03-20T01:50:34.861Z,18.80
2019-03-20T01:53:04.259Z,17.82
2019-03-20T01:55:34.844Z,11.78
2019-03-20T01:58:04.452Z,13.30
2019-03-20T02:00:34.105Z,11.55
2019-03-20T02:03:03.612Z,12.20
2019-03-20T02:05:36.347Z,10.55
2019-03-20T02:08:04.228Z,14.83
2019-03-20T02:10:33.636Z,15.35
2019-03-20T02:13:03.039Z,14.40
2019-03-20T02:15:38.902Z,16.42
2019-03-20T02:18:03.553Z,14.00
2019-03-20T02:20:32.964Z,14.38
2019-03-20T02:23:02.356Z,17.73
2019-03-20T02:25:32.505Z,16.25
2019-03-20T02:28:02.036Z,16.77
2019-03-20T02:30:31.783Z,12.47
2019-03-20T02:33:01.166Z,12.65
2019-03-20T02:35:30.565Z,19.40
2019-03-20T02:38:00.040Z,14.78
2019-03-20T02:40:30.568Z,13.15
2019-03-20T02:42:59.960Z,14.23
2019-03-20T02:45:29.416Z,13.98
2019-03-20T02:47:58.899Z,12.70
2019-03-20T02:50:28.310Z,12.85
2019-03-20T02:52:57.796Z,12.58
2019-03-20T02:55:27.283Z,13.55
2019-03-20T02:57:56.731Z,14.90
2019-03-20T03:00:26.149Z,12.47
2019-03-20T03:02:55.625Z,14.68
2019-03-20T03:05:25.083Z,16.80
2019-03-20T03:07:54.573Z,12.47
2019-03-20T03:10:24.029Z,18.90
2019-03-20T03:12:53.413Z,12.70
2019-03-20T03:15:22.917Z,16.95
2019-03-20T03:17:52.375Z,17.55
2019-03-20T03:20:21.756Z,14.33
2019-03-20T03:22:51.154Z,15.40
2019-03-20T03:25:20.605Z,15.95
2019-03-20T03:27:50.096Z,12.25
2019-03-20T03:30:19.491Z,13.90
2019-03-20T03:32:48.966Z,12.13
2019-03-20T03:35:20.453Z,13.08
2019-03-20T03:37:50.380Z,12.55
2019-03-20T03:40:19.922Z,13.58
2019-03-20T03:42:51.193Z,14.58
2019-03-20T03:45:20.648Z,13.55
2019-03-20T03:47:50.135Z,12.65
2019-03-20T03:50:19.590Z,9.98
2019-03-20T03:52:49.073Z,13.75
2019-03-20T03:55:18.524Z,13.40
2019-03-20T03:57:48.062Z,16.48
2019-03-20T04:00:17.592Z,11.78
2019-03-20T04:02:47.166Z,11.12
2019-03-20T04:05:16.849Z,17.82
2019-03-20T04:07:46.276Z,12.25
2019-03-20T04:10:15.685Z,14.13
2019-03-20T04:12:45.140Z,13.10
2019-03-20T04:15:15.303Z,11.97
2019-03-20T04:17:45.737Z,15.00
2019-03-20T04:20:15.422Z,13.35
2019-03-20T04:22:44.903Z,19.50
2019-03-20T04:25:14.715Z,13.28
2019-03-20T04:27:44.343Z,12.43
2019-03-20T04:30:13.924Z,14.28
2019-03-20T04:32:43.415Z,13.43
2019-03-20T04:35:14.337Z,20.75
2019-03-20T04:37:43.839Z,12.30
2019-03-20T04:40:13.328Z,15.35
2019-03-20T04:42:42.736Z,15.23
2019-03-20T04:45:12.842Z,12.13
2019-03-20T04:47:42.399Z,13.98
2019-03-20T04:50:11.844Z,15.83
2019-03-20T04:52:41.276Z,12.85
2019-03-20T04:55:11.061Z,13.13
2019-03-20T04:57:40.449Z,13.55
2019-03-20T05:00:12.260Z,17.05
2019-03-20T05:02:41.637Z,14.13
2019-03-20T05:05:11.244Z,14.60
2019-03-20T05:07:40.740Z,15.35
2019-03-20T05:10:11.796Z,15.88
2019-03-20T05:12:41.234Z,14.33
2019-03-20T05:15:10.945Z,14.30
2019-03-20T05:17:40.397Z,14.28
2019-03-20T05:20:11.236Z,14.65
2019-03-20T05:22:40.652Z,16.05
2019-03-20T05:25:10.185Z,13.72
2019-03-20T05:27:39.640Z,24.40
2019-03-20T05:30:09.781Z,20.57
2019-03-20T05:32:39.163Z,15.32
2019-03-20T05:35:08.873Z,12.70
2019-03-20T05:37:38.335Z,17.55
2019-03-20T05:40:08.617Z,17.20
2019-03-20T05:42:38.030Z,15.98
2019-03-20T05:45:08.956Z,20.97
2019-03-20T05:47:40.143Z,13.30
2019-03-20T05:50:10.837Z,13.65
2019-03-20T05:52:40.331Z,14.50
2019-03-20T05:55:10.016Z,15.55
2019-03-20T05:57:40.860Z,14.90
2019-03-20T06:00:11.735Z,21.30
2019-03-20T06:02:41.113Z,18.52
2019-03-20T06:05:10.712Z,15.18
2019-03-20T06:07:40.191Z,16.87
2019-03-20T06:10:11.363Z,16.05
2019-03-20T06:12:40.769Z,14.45
2019-03-20T06:15:10.352Z,15.40
2019-03-20T06:17:39.766Z,16.80
2019-03-20T06:20:09.356Z,19.07
2019-03-20T06:22:38.759Z,15.10
2019-03-20T06:25:08.695Z,14.65
2019-03-20T06:27:38.156Z,15.70
2019-03-20T06:30:09.244Z,17.98
2019-03-20T06:32:59.767Z,22.15
2019-03-20T06:35:28.783Z,14.00
2019-03-20T06:37:59.766Z,17.12
2019-03-20T06:40:29.234Z,20.02
2019-03-20T06:42:58.683Z,15.65
2019-03-20T06:45:28.081Z,18.17
2019-03-20T06:47:58.412Z,16.77
2019-03-20T06:50:27.829Z,17.02
2019-03-20T06:52:57.220Z,17.67
2019-03-20T06:55:26.691Z,18.17
2019-03-20T06:57:56.164Z,15.32
2019-03-20T07:00:52.009Z,15.75
2019-03-20T07:03:28.512Z,16.23
2019-03-20T07:06:28.136Z,16.12
2019-03-20T07:09:21.468Z,16.87
2019-03-20T07:11:50.872Z,18.95
2019-03-20T07:14:20.256Z,17.05
2019-03-20T07:16:49.683Z,15.23
2019-03-20T07:19:19.067Z,19.05
2019-03-20T07:21:49.987Z,15.45
2019-03-20T07:24:19.399Z,16.45
2019-03-20T07:26:48.781Z,14.70
2019-03-20T07:29:18.167Z,16.77
2019-03-20T07:31:47.661Z,16.70
2019-03-20T07:34:17.048Z,17.98
2019-03-20T07:36:46.463Z,13.80
2019-03-20T07:39:15.876Z,16.42
2019-03-20T07:41:45.342Z,15.18
2019-03-20T07:44:14.869Z,19.27
2019-03-20T07:46:44.362Z,13.83
2019-03-20T07:49:13.839Z,14.65
2019-03-20T07:51:45.103Z,17.17
2019-03-20T07:54:14.532Z,12.58
2019-03-20T07:56:43.984Z,16.37
2019-03-20T07:59:13.368Z,14.85
2019-03-20T08:01:42.784Z,15.72
2019-03-20T08:04:12.175Z,12.75
2019-03-20T08:06:41.566Z,16.37
2019-03-20T08:09:10.971Z,18.98
2019-03-20T08:11:40.361Z,16.42
2019-03-20T08:14:09.773Z,14.78
2019-03-20T08:16:39.195Z,17.92
2019-03-20T08:19:08.665Z,16.62
2019-03-20T08:21:38.107Z,18.80
2019-03-20T08:24:08.669Z,13.55
2019-03-20T08:26:38.073Z,13.48
2019-03-20T08:29:07.472Z,15.58
2019-03-20T08:31:37.011Z,17.02
2019-03-20T08:34:06.552Z,14.33
2019-03-20T08:36:35.944Z,15.27
2019-03-20T08:39:07.165Z,15.90
2019-03-20T08:41:36.669Z,21.20
2019-03-20T08:44:06.097Z,17.37
2019-03-20T08:46:35.518Z,18.67
2019-03-20T08:49:05.178Z,13.93
2019-03-20T08:51:34.592Z,19.67
2019-03-20T08:54:04.186Z,15.20
2019-03-20T08:56:33.592Z,14.30
2019-03-20T08:59:03.045Z,16.80
2019-03-20T09:01:32.528Z,14.20
2019-03-20T09:04:01.919Z,13.40
2019-03-20T09:06:32.412Z,12.80
2019-03-20T09:09:02.236Z,16.47
2019-03-20T09:11:31.628Z,15.90
2019-03-20T09:14:01.016Z,13.10
2019-03-20T09:16:30.731Z,14.10
2019-03-20T09:19:00.130Z,15.03
2019-03-20T09:21:29.950Z,14.07
2019-03-20T09:23:59.516Z,10.10
2019-03-20T09:26:28.946Z,10.67
2019-03-20T09:28:58.388Z,17.40
2019-03-20T09:31:27.775Z,11.53
2019-03-20T09:33:57.204Z,8.27
2019-03-20T09:36:26.711Z,8.07
2019-03-20T09:38:56.172Z,6.77
2019-03-20T09:41:25.555Z,6.73
2019-03-20T09:43:54.960Z,10.30
2019-03-20T09:46:24.368Z,7.13
2019-03-20T09:48:53.772Z,5.97
2019-03-20T09:51:23.597Z,7.90
2019-03-20T09:53:53.014Z,5.70
2019-03-20T09:56:22.472Z,7.87
2019-03-20T09:58:51.934Z,10.27
2019-03-20T10:01:21.375Z,7.33
2019-03-20T10:03:50.828Z,9.60
2019-03-20T10:06:20.223Z,6.13
2019-03-20T10:08:54.149Z,5.83
2019-03-20T10:11:20.805Z,6.70
2019-03-20T10:13:51.681Z,8.70
2019-03-20T10:16:21.056Z,6.70
2019-03-20T10:18:50.436Z,8.70
2019-03-20T10:21:19.908Z,5.67
2019-03-20T10:23:49.312Z,5.90
2019-03-20T10:26:18.732Z,9.77
2019-03-20T10:28:48.191Z,4.67
2019-03-20T10:31:17.655Z,4.60
2019-03-20T10:33:47.129Z,4.67
2019-03-20T10:36:16.508Z,6.10
2019-03-20T10:38:48.448Z,8.03
2019-03-20T10:41:17.020Z,6.23
2019-03-20T10:43:46.403Z,6.07
2019-03-20T10:46:15.974Z,9.53
2019-03-20T10:48:45.384Z,6.57
2019-03-20T10:51:14.934Z,10.33
2019-03-20T10:53:44.337Z,6.80
2019-03-20T10:56:13.857Z,5.50
2019-03-20T10:58:43.320Z,6.70
2019-03-20T11:01:13.859Z,8.87
2019-03-20T11:03:43.920Z,5.67
2019-03-20T11:06:13.919Z,8.20
2019-03-20T11:08:43.323Z,5.77
2019-03-20T11:11:12.739Z,8.20
2019-03-20T11:13:42.209Z,7.43
2019-03-20T11:16:11.608Z,9.20
2019-03-20T11:18:41.032Z,6.00
2019-03-20T11:21:10.490Z,7.80
2019-03-20T11:23:39.973Z,9.03
2019-03-20T11:26:09.409Z,6.30
2019-03-20T11:28:38.793Z,5.50
2019-03-20T11:31:08.250Z,6.07
2019-03-20T11:33:37.682Z,4.87
2019-03-20T11:36:07.243Z,5.03
2019-03-20T11:38:36.656Z,13.47
2019-03-20T11:41:06.149Z,7.07
2019-03-20T11:43:36.784Z,7.00
2019-03-20T11:46:06.164Z,5.70
2019-03-20T11:48:35.545Z,6.03
2019-03-20T11:51:04.946Z,6.77
2019-03-20T11:53:34.516Z,6.70
2019-03-20T11:56:03.941Z,7.70
2019-03-20T11:58:33.497Z,10.13
2019-03-20T12:01:02.952Z,8.50
2019-03-20T12:03:32.367Z,4.50
2019-03-20T12:06:01.845Z,7.13
2019-03-20T12:08:31.292Z,7.90
2019-03-20T12:11:00.800Z,7.67
2019-03-20T12:13:30.267Z,8.50
2019-03-20T12:15:59.782Z,6.30
2019-03-20T12:18:29.159Z,4.93
2019-03-20T12:20:58.536Z,8.60
2019-03-20T12:23:27.929Z,10.50
2019-03-20T12:25:57.312Z,7.23
2019-03-20T12:28:26.788Z,6.00
2019-03-20T12:30:56.240Z,9.83
2019-03-20T12:33:25.620Z,6.03
2019-03-20T12:35:55.104Z,5.17
2019-03-20T12:38:24.483Z,8.53
2019-03-20T12:40:53.887Z,5.80
2019-03-20T12:43:23.718Z,7.57
2019-03-20T12:45:53.119Z,5.83
2019-03-20T12:48:22.932Z,10.03
2019-03-20T12:50:52.351Z,4.57
2019-03-20T12:53:22.448Z,7.43
2019-03-20T12:55:52.062Z,4.80
2019-03-20T12:58:21.770Z,23.07
2019-03-20T13:00:51.449Z,6.40
2019-03-20T13:03:21.191Z,6.50
2019-03-20T13:05:50.800Z,11.17
2019-03-20T13:08:20.226Z,8.27
2019-03-20T13:10:50.012Z,6.13
2019-03-20T13:13:19.479Z,8.47
2019-03-20T13:15:49.057Z,5.07
2019-03-20T13:18:18.733Z,12.07
2019-03-20T13:20:48.850Z,4.13
2019-03-20T13:23:20.801Z,7.20
2019-03-20T13:25:50.522Z,5.57
2019-03-20T13:28:20.130Z,4.90
2019-03-20T13:30:53.730Z,7.70
2019-03-20T13:33:25.922Z,6.63
2019-03-20T13:35:54.484Z,6.13
2019-03-20T13:38:23.893Z,6.50
2019-03-20T13:40:53.549Z,7.77
2019-03-20T13:43:23.201Z,5.60
2019-03-20T13:45:52.807Z,5.97
2019-03-20T13:48:22.516Z,6.60
2019-03-20T13:50:51.967Z,5.67
2019-03-20T13:53:21.433Z,5.20
2019-03-20T13:55:51.135Z,6.27
2019-03-20T13:58:20.556Z,5.30
2019-03-20T14:00:50.244Z,6.70
2019-03-20T14:03:19.708Z,10.60
2019-03-20T14:05:49.135Z,6.33
2019-03-20T14:08:18.760Z,5.10
2019-03-20T14:10:51.136Z,5.10
2019-03-20T14:13:19.513Z,7.17
2019-03-20T14:15:48.927Z,5.60
2019-03-20T14:18:18.623Z,8.53
2019-03-20T14:20:49.251Z,7.83
2019-03-20T14:23:18.859Z,5.53
2019-03-20T14:25:48.569Z,6.80
2019-03-20T14:28:18.175Z,4.70
2019-03-20T14:30:47.883Z,8.80
2019-03-20T14:33:17.492Z,6.93
2019-03-20T14:35:46.997Z,5.23
2019-03-20T14:38:16.605Z,3.20
2019-03-20T14:40:46.211Z,4.13
2019-03-20T14:43:15.665Z,8.07
2019-03-20T14:45:45.428Z,3.93
2019-03-20T14:48:16.863Z,5.73
2019-03-20T14:50:46.482Z,3.43
2019-03-20T14:53:17.420Z,3.60
2019-03-20T14:55:46.815Z,4.80
2019-03-20T14:58:16.533Z,4.17
2019-03-20T15:00:45.969Z,7.73
2019-03-20T15:03:15.748Z,6.00
2019-03-20T15:05:45.144Z,4.37
2019-03-20T15:08:14.543Z,6.03
2019-03-20T15:10:46.210Z,8.63
2019-03-20T15:13:15.164Z,5.53
2019-03-20T15:15:47.790Z,5.63
2019-03-20T15:18:17.206Z,5.10
2019-03-20T15:20:46.583Z,7.90
2019-03-20T15:23:15.964Z,4.50
2019-03-20T15:25:45.370Z,7.23
2019-03-20T15:28:14.769Z,4.27
2019-03-20T15:30:44.213Z,5.50
2019-03-20T15:33:13.706Z,6.30
2019-03-20T15:35:43.154Z,4.50
2019-03-20T15:38:12.588Z,3.73
2019-03-20T15:40:42.040Z,5.40
2019-03-20T15:43:11.433Z,4.90
2019-03-20T15:45:40.851Z,9.90
2019-03-20T15:48:11.785Z,2.93
2019-03-20T15:50:41.239Z,5.50
2019-03-20T15:53:10.756Z,3.17
2019-03-20T15:55:40.168Z,7.47
2019-03-20T15:58:09.556Z,4.27
2019-03-20T16:00:39.025Z,8.83
2019-03-20T16:03:11.992Z,6.43
2019-03-20T16:05:41.397Z,9.10
2019-03-20T16:08:10.824Z,3.30
2019-03-20T16:10:40.229Z,4.13
2019-03-20T16:13:09.731Z,5.43
2019-03-20T16:15:39.211Z,3.90
2019-03-20T16:18:08.595Z,2.60
2019-03-20T16:20:38.012Z,4.80
2019-03-20T16:23:07.488Z,4.10
2019-03-20T16:25:36.873Z,2.70
2019-03-20T16:28:06.294Z,5.10
2019-03-20T16:30:35.743Z,8.37
2019-03-20T16:33:05.155Z,10.60
2019-03-20T16:35:34.549Z,5.37
2019-03-20T16:38:04.002Z,9.13
2019-03-20T16:40:35.268Z,10.30
2019-03-20T16:43:04.783Z,4.93
2019-03-20T16:45:34.207Z,9.20
2019-03-20T16:48:03.901Z,3.40
2019-03-20T16:50:33.401Z,5.00
2019-03-20T16:53:02.789Z,6.33
2019-03-20T16:55:32.178Z,5.87
2019-03-20T16:58:01.575Z,5.50
2019-03-20T17:00:31.069Z,5.20
2019-03-20T17:03:00.559Z,8.23
2019-03-20T17:05:30.656Z,4.30
2019-03-20T17:08:00.044Z,4.67
2019-03-20T17:10:34.651Z,7.13
2019-03-20T17:13:04.443Z,10.03
2019-03-20T17:15:33.983Z,3.30
2019-03-20T17:18:03.745Z,3.53
2019-03-20T17:20:33.151Z,4.30
2019-03-20T17:23:02.541Z,4.80
2019-03-20T17:25:32.016Z,4.77
2019-03-20T17:28:01.435Z,6.40
2019-03-20T17:30:32.956Z,7.47
2019-03-20T17:33:02.569Z,14.70
2019-03-20T17:35:32.045Z,7.03
2019-03-20T17:38:01.449Z,8.90
2019-03-20T17:40:30.865Z,3.73
2019-03-20T17:43:00.713Z,6.80
2019-03-20T17:45:31.779Z,6.67
2019-03-20T17:48:01.232Z,8.30
2019-03-20T17:50:30.988Z,8.80
2019-03-20T17:53:00.496Z,8.70
2019-03-20T17:55:30.220Z,4.27
2019-03-20T17:58:01.407Z,4.83
2019-03-20T18:00:42.303Z,6.00
2019-03-20T18:03:11.740Z,5.97
2019-03-20T18:05:42.838Z,5.40
2019-03-20T18:08:12.305Z,10.23
2019-03-20T18:10:41.696Z,9.83
2019-03-20T18:13:11.076Z,7.30
2019-03-20T18:15:40.481Z,8.83
2019-03-20T18:18:09.940Z,8.40
2019-03-20T18:20:39.472Z,5.70
2019-03-20T18:23:09.172Z,7.17
2019-03-20T18:25:38.656Z,6.80
2019-03-20T18:28:08.099Z,7.45
2019-03-20T18:30:38.072Z,9.03
2019-03-20T18:33:07.482Z,4.93
2019-03-20T18:35:36.945Z,9.30
2019-03-20T18:38:07.177Z,7.70
2019-03-20T18:40:36.657Z,7.83
2019-03-20T18:43:06.376Z,8.87
2019-03-20T18:45:35.801Z,9.63
2019-03-20T18:48:05.593Z,11.08
2019-03-20T18:50:35.057Z,8.90
2019-03-20T18:53:04.472Z,12.45
2019-03-20T18:55:33.863Z,5.00
2019-03-20T18:58:03.447Z,8.33
2019-03-20T19:00:32.971Z,7.37
2019-03-20T19:03:02.626Z,5.70
2019-03-20T19:05:38.084Z,13.85
2019-03-20T19:08:07.552Z,12.83
2019-03-20T19:10:38.598Z,7.37
2019-03-20T19:13:08.097Z,10.20
2019-03-20T19:15:37.500Z,17.57
2019-03-20T19:18:06.892Z,16.27
2019-03-20T19:20:36.284Z,7.23
2019-03-20T19:23:05.677Z,5.97
2019-03-20T19:25:35.156Z,7.92
2019-03-20T19:28:04.737Z,11.65
2019-03-20T19:30:34.124Z,7.35
2019-03-20T19:33:03.853Z,7.47
2019-03-20T19:35:33.322Z,17.27
2019-03-20T19:38:03.801Z,9.60
2019-03-20T19:40:33.324Z,11.38
2019-03-20T19:43:03.821Z,8.05
2019-03-20T19:45:33.231Z,17.48
2019-03-20T19:48:02.652Z,12.45
2019-03-20T19:50:32.114Z,12.03
2019-03-20T19:53:01.721Z,12.43
2019-03-20T19:55:31.111Z,18.23
2019-03-20T19:58:00.511Z,15.90
2019-03-20T20:00:29.916Z,11.45
2019-03-20T20:02:59.388Z,15.25
2019-03-20T20:05:28.881Z,16.45
2019-03-20T20:07:58.368Z,11.95
2019-03-20T20:10:27.788Z,14.87
2019-03-20T20:12:57.379Z,16.75
2019-03-20T20:15:26.780Z,15.90
2019-03-20T20:17:56.196Z,12.82
2019-03-20T20:20:25.584Z,16.75
2019-03-20T20:22:54.975Z,17.27
2019-03-20T20:25:24.386Z,14.20
2019-03-20T20:27:53.805Z,16.65
2019-03-20T20:30:23.308Z,12.28
2019-03-20T20:32:52.800Z,11.45
2019-03-20T20:35:22.188Z,16.95
2019-03-20T20:37:51.692Z,12.37
2019-03-20T20:40:21.121Z,10.55
2019-03-20T20:42:50.600Z,11.18
2019-03-20T20:45:20.020Z,11.60
2019-03-20T20:47:49.425Z,14.55
2019-03-20T20:50:18.929Z,16.00
2019-03-20T20:52:48.358Z,15.08
2019-03-20T20:55:17.753Z,12.55
2019-03-20T20:57:47.170Z,12.88
2019-03-20T21:00:18.653Z,16.37
2019-03-20T21:02:48.043Z,10.48
2019-03-20T21:05:17.516Z,9.88
2019-03-20T21:07:46.973Z,11.85
2019-03-20T21:10:16.682Z,11.53
2019-03-20T21:12:55.598Z,10.70
2019-03-20T21:15:38.630Z,10.20
2019-03-20T21:18:46.192Z,13.15
2019-03-20T21:21:16.124Z,11.28
2019-03-20T21:24:21.044Z,18.12
2019-03-20T21:27:28.674Z,14.75
2019-03-20T21:30:51.415Z,14.15
2019-03-20T21:34:10.473Z,13.05
2019-03-20T21:37:18.043Z,9.95
2019-03-20T21:39:47.988Z,13.13
2019-03-20T21:43:06.736Z,13.22
2019-03-20T21:46:07.040Z,11.63
2019-03-20T21:48:36.956Z,13.03
2019-03-20T21:51:19.501Z,10.85
2019-03-20T21:54:39.953Z,10.72
2019-03-20T21:57:55.420Z,10.60
2019-03-20T22:01:00.461Z,15.03
2019-03-20T22:03:30.831Z,13.50
2019-03-20T22:06:37.220Z,14.10
2019-03-20T22:09:22.388Z,15.98
2019-03-20T22:12:40.984Z,14.60
2019-03-20T22:15:19.033Z,10.88
2019-03-20T22:18:24.187Z,15.15
2019-03-20T22:21:33.936Z,14.93
2019-03-20T22:24:48.459Z,23.30
2019-03-20T22:27:41.333Z,11.83
2019-03-20T22:30:11.299Z,10.60
2019-03-20T22:33:09.300Z,13.13
2019-03-20T22:36:16.860Z,12.70
2019-03-20T22:39:19.276Z,12.90
2019-03-20T22:42:13.269Z,12.58
2019-03-20T22:44:50.649Z,14.18
2019-03-20T22:47:55.396Z,12.58
2019-03-20T22:50:35.578Z,13.45
2019-03-20T22:53:42.736Z,12.88
2019-03-20T22:56:33.431Z,11.48
2019-03-20T22:59:03.449Z,14.10
2019-03-20T23:02:03.803Z,12.90
2019-03-20T23:04:40.256Z,16.05
2019-03-20T23:07:10.699Z,13.98
2019-03-20T23:09:40.864Z,17.17
2019-03-20T23:12:13.576Z,11.70
2019-03-20T23:14:44.508Z,12.37
2019-03-20T23:17:14.765Z,10.80
2019-03-20T23:19:46.855Z,16.37
2019-03-20T23:22:16.780Z,11.10
2019-03-20T23:24:47.551Z,9.70
2019-03-20T23:27:21.276Z,10.70
2019-03-20T23:29:51.255Z,12.37
2019-03-20T23:32:21.224Z,12.18
2019-03-20T23:34:51.153Z,13.60
2019-03-20T23:37:21.067Z,15.50
2019-03-20T23:39:51.004Z,14.28
2019-03-20T23:42:22.084Z,18.77
2019-03-20T23:44:52.052Z,12.10
2019-03-20T23:47:28.075Z,9.65
2019-03-20T23:49:58.014Z,11.45
2019-03-20T23:52:27.929Z,17.67
2019-03-20T23:54:58.399Z,11.43
2019-03-20T23:57:28.336Z,10.72
